sensor_id;sensor_type;location;lat;lon;timestamp;pressure;altitude;pressure_sealevel;temperature;humidity
47430;BME280;33181;49.246;7.372;2023-01-28T00:00:09;99526.44;;;2.32;96.08
47430;BME280;33181;49.246;7.372;2023-01-28T00:02:35;99526.03;;;2.19;96.40
47430;BME280;33181;49.246;7.372;2023-01-28T00:05:02;99523.59;;;2.15;97.10
47430;BME280;33181;49.246;7.372;2023-01-28T00:07:27;99524.84;;;2.03;97.99
47430;BME280;33181;49.246;7.372;2023-01-28T00:09:53;99513.78;;;1.98;98.41
47430;BME280;33181;49.246;7.372;2023-01-28T00:12:19;99516.06;;;2.07;98.16
47430;BME280;33181;49.246;7.372;2023-01-28T00:14:45;99521.13;;;2.12;98.40
47430;BME280;33181;49.246;7.372;2023-01-28T00:17:13;99519.78;;;2.25;98.28
47430;BME280;33181;49.246;7.372;2023-01-28T00:19:42;99526.72;;;2.24;97.03
47430;BME280;33181;49.246;7.372;2023-01-28T00:22:09;99517.44;;;2.17;96.55
47430;BME280;33181;49.246;7.372;2023-01-28T00:24:34;99518.00;;;2.02;97.75
47430;BME280;33181;49.246;7.372;2023-01-28T00:27:00;99518.63;;;2.08;96.96
47430;BME280;33181;49.246;7.372;2023-01-28T00:29:26;99515.22;;;2.06;97.23
47430;BME280;33181;49.246;7.372;2023-01-28T00:31:52;99519.88;;;1.97;96.47
47430;BME280;33181;49.246;7.372;2023-01-28T00:34:17;99514.59;;;2.00;96.64
47430;BME280;33181;49.246;7.372;2023-01-28T00:36:44;99526.63;;;2.01;96.71
47430;BME280;33181;49.246;7.372;2023-01-28T00:39:13;99514.06;;;1.90;96.11
47430;BME280;33181;49.246;7.372;2023-01-28T00:41:39;99520.59;;;2.02;96.19
47430;BME280;33181;49.246;7.372;2023-01-28T00:44:05;99520.69;;;1.99;95.86
47430;BME280;33181;49.246;7.372;2023-01-28T00:46:31;99510.94;;;2.05;95.54
47430;BME280;33181;49.246;7.372;2023-01-28T00:48:56;99516.34;;;1.99;95.33
47430;BME280;33181;49.246;7.372;2023-01-28T00:51:22;99511.84;;;2.04;94.79
47430;BME280;33181;49.246;7.372;2023-01-28T00:53:48;99510.22;;;2.02;95.13
47430;BME280;33181;49.246;7.372;2023-01-28T00:56:16;99514.38;;;2.06;94.77
47430;BME280;33181;49.246;7.372;2023-01-28T00:58:43;99521.25;;;2.07;94.86
47430;BME280;33181;49.246;7.372;2023-01-28T01:01:25;99523.69;;;1.85;95.59
47430;BME280;33181;49.246;7.372;2023-01-28T01:03:52;99513.03;;;1.94;95.18
47430;BME280;33181;49.246;7.372;2023-01-28T01:06:30;99506.91;;;1.97;94.78
47430;BME280;33181;49.246;7.372;2023-01-28T01:08:56;99517.13;;;2.01;94.93
47430;BME280;33181;49.246;7.372;2023-01-28T01:11:24;99517.81;;;2.06;94.92
47430;BME280;33181;49.246;7.372;2023-01-28T01:13:56;99528.72;;;2.16;94.88
47430;BME280;33181;49.246;7.372;2023-01-28T01:16:25;99517.09;;;2.28;94.28
47430;BME280;33181;49.246;7.372;2023-01-28T01:18:52;99517.94;;;2.28;92.85
47430;BME280;33181;49.246;7.372;2023-01-28T01:21:21;99521.34;;;2.30;92.90
47430;BME280;33181;49.246;7.372;2023-01-28T01:23:48;99518.09;;;2.24;93.47
47430;BME280;33181;49.246;7.372;2023-01-28T01:26:14;99519.38;;;2.12;94.20
47430;BME280;33181;49.246;7.372;2023-01-28T01:28:40;99523.41;;;1.94;95.53
47430;BME280;33181;49.246;7.372;2023-01-28T01:31:14;99537.22;;;1.68;97.42
47430;BME280;33181;49.246;7.372;2023-01-28T01:33:43;99533.72;;;1.69;98.78
47430;BME280;33181;49.246;7.372;2023-01-28T01:36:11;99530.09;;;1.75;98.95
47430;BME280;33181;49.246;7.372;2023-01-28T01:38:37;99532.13;;;1.92;99.16
47430;BME280;33181;49.246;7.372;2023-01-28T01:41:05;99528.47;;;1.97;98.01
47430;BME280;33181;49.246;7.372;2023-01-28T01:47:11;99540.59;;;1.97;98.32
47430;BME280;33181;49.246;7.372;2023-01-28T01:49:37;99541.88;;;2.10;97.06
47430;BME280;33181;49.246;7.372;2023-01-28T01:52:12;99533.91;;;2.16;97.12
47430;BME280;33181;49.246;7.372;2023-01-28T01:54:41;99533.16;;;2.13;97.27
47430;BME280;33181;49.246;7.372;2023-01-28T01:57:13;99535.34;;;2.25;95.94
47430;BME280;33181;49.246;7.372;2023-01-28T01:59:41;99532.97;;;2.19;96.04
47430;BME280;33181;49.246;7.372;2023-01-28T02:02:09;99536.69;;;2.10;96.91
47430;BME280;33181;49.246;7.372;2023-01-28T02:04:41;99538.53;;;2.06;95.95
47430;BME280;33181;49.246;7.372;2023-01-28T02:07:11;99544.94;;;1.96;97.29
47430;BME280;33181;49.246;7.372;2023-01-28T02:09:38;99552.59;;;1.99;97.06
47430;BME280;33181;49.246;7.372;2023-01-28T02:12:16;99549.56;;;2.13;96.50
47430;BME280;33181;49.246;7.372;2023-01-28T02:14:55;99542.69;;;2.12;96.30
47430;BME280;33181;49.246;7.372;2023-01-28T02:17:24;99545.69;;;2.00;96.58
47430;BME280;33181;49.246;7.372;2023-01-28T02:31:52;99552.59;;;1.73;100.00
47430;BME280;33181;49.246;7.372;2023-01-28T02:35:03;99553.44;;;1.73;100.00
47430;BME280;33181;49.246;7.372;2023-01-28T02:37:50;99548.94;;;1.80;100.00
47430;BME280;33181;49.246;7.372;2023-01-28T02:40:33;99548.34;;;1.70;100.00
47430;BME280;33181;49.246;7.372;2023-01-28T02:43:40;99553.03;;;1.85;100.00
47430;BME280;33181;49.246;7.372;2023-01-28T02:49:39;99543.28;;;1.67;99.34
47430;BME280;33181;49.246;7.372;2023-01-28T03:01:58;99543.16;;;1.70;99.75
47430;BME280;33181;49.246;7.372;2023-01-28T03:07:31;99553.19;;;1.81;99.74
47430;BME280;33181;49.246;7.372;2023-01-28T03:10:01;99544.59;;;1.80;99.08
47430;BME280;33181;49.246;7.372;2023-01-28T03:12:31;99554.94;;;1.80;99.00
47430;BME280;33181;49.246;7.372;2023-01-28T03:15:24;99553.22;;;1.79;99.17
47430;BME280;33181;49.246;7.372;2023-01-28T03:18:21;99554.50;;;1.94;99.56
47430;BME280;33181;49.246;7.372;2023-01-28T03:21:27;99555.03;;;2.04;98.86
47430;BME280;33181;49.246;7.372;2023-01-28T03:24:23;99558.06;;;2.17;98.48
47430;BME280;33181;49.246;7.372;2023-01-28T03:27:49;99563.66;;;2.04;96.87
47430;BME280;33181;49.246;7.372;2023-01-28T03:30:46;99557.19;;;1.91;97.98
47430;BME280;33181;49.246;7.372;2023-01-28T03:33:33;99560.59;;;1.93;97.31
47430;BME280;33181;49.246;7.372;2023-01-28T03:36:18;99559.41;;;1.75;97.35
47430;BME280;33181;49.246;7.372;2023-01-28T03:39:03;99565.59;;;1.71;97.92
47430;BME280;33181;49.246;7.372;2023-01-28T03:41:28;99567.00;;;1.81;97.98
47430;BME280;33181;49.246;7.372;2023-01-28T03:43:54;99568.97;;;1.73;97.67
47430;BME280;33181;49.246;7.372;2023-01-28T03:46:21;99570.41;;;1.82;97.67
47430;BME280;33181;49.246;7.372;2023-01-28T03:48:47;99572.81;;;1.88;97.66
47430;BME280;33181;49.246;7.372;2023-01-28T03:51:13;99570.13;;;1.91;96.06
47430;BME280;33181;49.246;7.372;2023-01-28T03:53:39;99582.09;;;1.95;96.43
47430;BME280;33181;49.246;7.372;2023-01-28T03:56:05;99584.28;;;1.81;97.21
47430;BME280;33181;49.246;7.372;2023-01-28T03:58:31;99582.88;;;1.71;98.46
47430;BME280;33181;49.246;7.372;2023-01-28T04:01:19;99588.19;;;1.66;99.12
47430;BME280;33181;49.246;7.372;2023-01-28T04:03:45;99591.59;;;1.68;99.33
47430;BME280;33181;49.246;7.372;2023-01-28T04:06:11;99589.59;;;1.76;98.98
47430;BME280;33181;49.246;7.372;2023-01-28T04:08:36;99586.41;;;1.68;99.61
47430;BME280;33181;49.246;7.372;2023-01-28T04:11:02;99588.81;;;1.74;99.54
47430;BME280;33181;49.246;7.372;2023-01-28T04:13:41;99588.94;;;1.70;99.58
47430;BME280;33181;49.246;7.372;2023-01-28T04:16:08;99589.66;;;1.75;99.28
47430;BME280;33181;49.246;7.372;2023-01-28T04:18:34;99587.69;;;1.83;99.26
47430;BME280;33181;49.246;7.372;2023-01-28T04:21:00;99592.63;;;1.89;97.92
47430;BME280;33181;49.246;7.372;2023-01-28T04:23:25;99592.59;;;1.91;97.76
47430;BME280;33181;49.246;7.372;2023-01-28T04:25:51;99596.19;;;1.87;96.95
47430;BME280;33181;49.246;7.372;2023-01-28T04:28:17;99593.53;;;1.88;96.81
47430;BME280;33181;49.246;7.372;2023-01-28T04:30:43;99591.59;;;1.95;96.73
47430;BME280;33181;49.246;7.372;2023-01-28T04:33:09;99594.91;;;2.00;96.04
47430;BME280;33181;49.246;7.372;2023-01-28T04:35:35;99596.69;;;1.98;96.67
47430;BME280;33181;49.246;7.372;2023-01-28T04:38:00;99600.03;;;2.01;95.88
47430;BME280;33181;49.246;7.372;2023-01-28T04:40:26;99597.69;;;1.94;95.90
47430;BME280;33181;49.246;7.372;2023-01-28T04:42:58;99603.81;;;1.91;95.61
47430;BME280;33181;49.246;7.372;2023-01-28T04:45:24;99603.59;;;1.71;97.03
47430;BME280;33181;49.246;7.372;2023-01-28T04:47:52;99603.72;;;1.66;97.57
47430;BME280;33181;49.246;7.372;2023-01-28T04:50:17;99604.44;;;1.71;97.11
47430;BME280;33181;49.246;7.372;2023-01-28T04:52:43;99607.81;;;1.73;96.79
47430;BME280;33181;49.246;7.372;2023-01-28T04:55:10;99603.50;;;1.74;97.31
47430;BME280;33181;49.246;7.372;2023-01-28T04:57:36;99604.19;;;1.79;96.43
47430;BME280;33181;49.246;7.372;2023-01-28T05:00:02;99606.13;;;1.72;95.76
47430;BME280;33181;49.246;7.372;2023-01-28T05:02:28;99609.09;;;1.60;95.60
47430;BME280;33181;49.246;7.372;2023-01-28T05:04:54;99615.09;;;1.60;95.32
47430;BME280;33181;49.246;7.372;2023-01-28T05:07:19;99609.09;;;1.60;94.69
47430;BME280;33181;49.246;7.372;2023-01-28T05:09:45;99618.31;;;1.69;95.55
47430;BME280;33181;49.246;7.372;2023-01-28T05:12:11;99611.63;;;1.61;94.83
47430;BME280;33181;49.246;7.372;2023-01-28T05:14:37;99615.91;;;1.62;93.88
47430;BME280;33181;49.246;7.372;2023-01-28T05:17:02;99615.09;;;1.60;93.89
47430;BME280;33181;49.246;7.372;2023-01-28T05:19:28;99610.22;;;1.79;93.72
47430;BME280;33181;49.246;7.372;2023-01-28T05:21:54;99617.97;;;1.79;92.43
47430;BME280;33181;49.246;7.372;2023-01-28T05:24:19;99615.28;;;1.82;92.48
47430;BME280;33181;49.246;7.372;2023-01-28T05:26:48;99615.16;;;1.87;91.92
47430;BME280;33181;49.246;7.372;2023-01-28T05:29:13;99621.81;;;1.96;91.78
47430;BME280;33181;49.246;7.372;2023-01-28T05:31:39;99620.25;;;1.90;91.35
47430;BME280;33181;49.246;7.372;2023-01-28T05:34:05;99620.63;;;2.06;90.28
47430;BME280;33181;49.246;7.372;2023-01-28T05:36:30;99624.66;;;2.15;89.97
47430;BME280;33181;49.246;7.372;2023-01-28T05:38:56;99627.09;;;1.93;89.47
47430;BME280;33181;49.246;7.372;2023-01-28T05:41:23;99630.25;;;2.02;89.67
47430;BME280;33181;49.246;7.372;2023-01-28T05:43:49;99636.66;;;1.89;89.16
47430;BME280;33181;49.246;7.372;2023-01-28T05:46:14;99633.69;;;1.73;89.23
47430;BME280;33181;49.246;7.372;2023-01-28T05:48:40;99635.53;;;1.70;90.34
47430;BME280;33181;49.246;7.372;2023-01-28T05:51:06;99642.28;;;1.75;89.45
47430;BME280;33181;49.246;7.372;2023-01-28T05:53:31;99641.63;;;1.69;90.06
47430;BME280;33181;49.246;7.372;2023-01-28T05:55:57;99640.25;;;1.85;90.11
47430;BME280;33181;49.246;7.372;2023-01-28T05:58:23;99645.91;;;1.98;89.04
47430;BME280;33181;49.246;7.372;2023-01-28T06:00:49;99643.19;;;2.02;88.31
47430;BME280;33181;49.246;7.372;2023-01-28T06:03:14;99653.38;;;2.08;88.37
47430;BME280;33181;49.246;7.372;2023-01-28T06:05:40;99647.56;;;2.00;87.99
47430;BME280;33181;49.246;7.372;2023-01-28T06:08:06;99656.16;;;2.02;88.55
47430;BME280;33181;49.246;7.372;2023-01-28T06:10:32;99649.81;;;2.11;88.16
47430;BME280;33181;49.246;7.372;2023-01-28T06:12:57;99650.91;;;2.04;88.09
47430;BME280;33181;49.246;7.372;2023-01-28T06:15:23;99664.19;;;1.93;88.07
47430;BME280;33181;49.246;7.372;2023-01-28T06:17:49;99661.91;;;1.82;88.09
47430;BME280;33181;49.246;7.372;2023-01-28T06:20:15;99661.22;;;1.77;88.73
47430;BME280;33181;49.246;7.372;2023-01-28T06:22:41;99666.63;;;1.70;89.25
47430;BME280;33181;49.246;7.372;2023-01-28T06:25:07;99671.00;;;1.68;89.00
47430;BME280;33181;49.246;7.372;2023-01-28T06:27:34;99669.66;;;1.84;89.21
47430;BME280;33181;49.246;7.372;2023-01-28T06:30:00;99666.88;;;1.90;89.02
47430;BME280;33181;49.246;7.372;2023-01-28T06:32:27;99673.63;;;1.96;88.33
47430;BME280;33181;49.246;7.372;2023-01-28T06:34:52;99680.44;;;1.98;87.96
47430;BME280;33181;49.246;7.372;2023-01-28T06:37:18;99690.75;;;2.00;87.88
47430;BME280;33181;49.246;7.372;2023-01-28T06:39:44;99689.94;;;1.98;87.18
47430;BME280;33181;49.246;7.372;2023-01-28T06:42:10;99688.94;;;2.03;87.42
47430;BME280;33181;49.246;7.372;2023-01-28T06:44:35;99693.09;;;2.07;87.16
47430;BME280;33181;49.246;7.372;2023-01-28T06:47:04;99692.06;;;2.13;86.49
47430;BME280;33181;49.246;7.372;2023-01-28T06:49:30;99700.84;;;2.09;86.61
47430;BME280;33181;49.246;7.372;2023-01-28T06:51:56;99701.16;;;1.98;87.01
47430;BME280;33181;49.246;7.372;2023-01-28T06:54:22;99699.94;;;1.82;87.50
47430;BME280;33181;49.246;7.372;2023-01-28T06:56:47;99692.81;;;1.89;87.65
47430;BME280;33181;49.246;7.372;2023-01-28T06:59:13;99702.13;;;1.96;86.72
47430;BME280;33181;49.246;7.372;2023-01-28T07:01:39;99708.50;;;1.84;87.57
47430;BME280;33181;49.246;7.372;2023-01-28T07:04:04;99708.88;;;1.72;88.65
47430;BME280;33181;49.246;7.372;2023-01-28T07:06:30;99705.25;;;1.77;88.55
47430;BME280;33181;49.246;7.372;2023-01-28T07:08:56;99709.34;;;1.84;88.58
47430;BME280;33181;49.246;7.372;2023-01-28T07:11:22;99711.09;;;1.84;88.02
47430;BME280;33181;49.246;7.372;2023-01-28T07:13:47;99710.00;;;1.93;88.04
47430;BME280;33181;49.246;7.372;2023-01-28T07:16:13;99713.63;;;1.85;88.43
47430;BME280;33181;49.246;7.372;2023-01-28T07:18:39;99716.75;;;1.97;87.92
47430;BME280;33181;49.246;7.372;2023-01-28T07:21:05;99721.94;;;1.97;86.69
47430;BME280;33181;49.246;7.372;2023-01-28T07:23:30;99718.22;;;1.77;87.64
47430;BME280;33181;49.246;7.372;2023-01-28T07:26:03;99715.03;;;1.68;88.25
47430;BME280;33181;49.246;7.372;2023-01-28T07:28:29;99720.06;;;1.72;88.28
47430;BME280;33181;49.246;7.372;2023-01-28T07:30:57;99711.53;;;1.69;88.18
47430;BME280;33181;49.246;7.372;2023-01-28T07:33:23;99719.38;;;1.67;88.22
47430;BME280;33181;49.246;7.372;2023-01-28T07:35:49;99716.63;;;1.72;88.66
47430;BME280;33181;49.246;7.372;2023-01-28T07:38:15;99722.38;;;1.83;88.40
47430;BME280;33181;49.246;7.372;2023-01-28T07:40:41;99714.59;;;1.83;87.61
47430;BME280;33181;49.246;7.372;2023-01-28T07:43:07;99721.81;;;1.72;87.92
47430;BME280;33181;49.246;7.372;2023-01-28T07:45:34;99727.66;;;1.78;87.82
47430;BME280;33181;49.246;7.372;2023-01-28T07:48:05;99731.00;;;1.82;87.75
47430;BME280;33181;49.246;7.372;2023-01-28T07:50:34;99727.84;;;1.72;88.12
47430;BME280;33181;49.246;7.372;2023-01-28T07:53:09;99723.41;;;1.76;87.64
47430;BME280;33181;49.246;7.372;2023-01-28T07:55:36;99735.34;;;1.81;87.33
47430;BME280;33181;49.246;7.372;2023-01-28T07:58:05;99746.97;;;1.68;88.30
47430;BME280;33181;49.246;7.372;2023-01-28T08:00:34;99739.28;;;1.65;88.09
47430;BME280;33181;49.246;7.372;2023-01-28T08:03:03;99747.66;;;1.73;88.13
47430;BME280;33181;49.246;7.372;2023-01-28T08:05:45;99744.19;;;1.74;88.09
47430;BME280;33181;49.246;7.372;2023-01-28T08:08:12;99748.72;;;1.66;87.37
47430;BME280;33181;49.246;7.372;2023-01-28T08:10:38;99742.72;;;1.66;88.26
47430;BME280;33181;49.246;7.372;2023-01-28T08:13:05;99748.91;;;1.60;87.98
47430;BME280;33181;49.246;7.372;2023-01-28T08:15:31;99749.81;;;1.59;88.61
47430;BME280;33181;49.246;7.372;2023-01-28T08:17:58;99749.56;;;1.67;88.26
47430;BME280;33181;49.246;7.372;2023-01-28T08:20:26;99747.72;;;1.72;87.53
47430;BME280;33181;49.246;7.372;2023-01-28T08:22:52;99750.06;;;1.79;87.67
47430;BME280;33181;49.246;7.372;2023-01-28T08:25:18;99764.94;;;1.73;87.42
47430;BME280;33181;49.246;7.372;2023-01-28T08:27:44;99761.38;;;1.77;86.78
47430;BME280;33181;49.246;7.372;2023-01-28T08:30:11;99769.34;;;1.69;87.13
47430;BME280;33181;49.246;7.372;2023-01-28T08:32:36;99769.88;;;1.51;87.26
47430;BME280;33181;49.246;7.372;2023-01-28T08:35:03;99778.19;;;1.62;87.27
47430;BME280;33181;49.246;7.372;2023-01-28T08:37:29;99770.25;;;1.68;87.18
47430;BME280;33181;49.246;7.372;2023-01-28T08:39:55;99779.63;;;1.72;86.03
47430;BME280;33181;49.246;7.372;2023-01-28T08:42:21;99772.88;;;1.67;86.19
47430;BME280;33181;49.246;7.372;2023-01-28T08:44:46;99776.94;;;1.77;86.84
47430;BME280;33181;49.246;7.372;2023-01-28T08:47:13;99770.91;;;2.06;85.23
47430;BME280;33181;49.246;7.372;2023-01-28T08:49:42;99763.66;;;2.17;85.57
47430;BME280;33181;49.246;7.372;2023-01-28T08:52:08;99759.47;;;2.13;84.97
47430;BME280;33181;49.246;7.372;2023-01-28T08:54:33;99756.88;;;2.13;84.40
47430;BME280;33181;49.246;7.372;2023-01-28T08:57:01;99757.84;;;2.09;84.28
47430;BME280;33181;49.246;7.372;2023-01-28T08:59:27;99761.44;;;2.05;84.74
47430;BME280;33181;49.246;7.372;2023-01-28T09:01:53;99764.69;;;1.82;85.23
47430;BME280;33181;49.246;7.372;2023-01-28T09:04:18;99767.25;;;1.83;84.79
47430;BME280;33181;49.246;7.372;2023-01-28T09:06:44;99758.22;;;1.97;85.40
47430;BME280;33181;49.246;7.372;2023-01-28T09:09:10;99755.53;;;2.00;85.08
47430;BME280;33181;49.246;7.372;2023-01-28T09:11:35;99764.34;;;1.94;84.53
47430;BME280;33181;49.246;7.372;2023-01-28T09:14:01;99772.38;;;1.85;84.58
47430;BME280;33181;49.246;7.372;2023-01-28T09:16:27;99753.75;;;2.02;84.16
47430;BME280;33181;49.246;7.372;2023-01-28T09:18:52;99760.00;;;1.95;84.38
47430;BME280;33181;49.246;7.372;2023-01-28T09:21:19;99774.38;;;1.75;84.08
47430;BME280;33181;49.246;7.372;2023-01-28T09:23:46;99780.19;;;1.83;84.38
47430;BME280;33181;49.246;7.372;2023-01-28T09:26:11;99781.13;;;1.81;84.67
47430;BME280;33181;49.246;7.372;2023-01-28T09:28:37;99774.94;;;1.85;84.44
47430;BME280;33181;49.246;7.372;2023-01-28T09:31:10;99778.88;;;1.98;84.41
47430;BME280;33181;49.246;7.372;2023-01-28T09:33:38;99781.97;;;2.11;83.50
47430;BME280;33181;49.246;7.372;2023-01-28T09:36:07;99782.66;;;2.18;83.63
47430;BME280;33181;49.246;7.372;2023-01-28T09:38:34;99785.69;;;2.02;83.67
47430;BME280;33181;49.246;7.372;2023-01-28T09:41:03;99795.25;;;2.00;83.59
47430;BME280;33181;49.246;7.372;2023-01-28T09:44:24;99802.19;;;1.98;83.80
47430;BME280;33181;49.246;7.372;2023-01-28T09:47:04;99789.16;;;2.01;83.04
47430;BME280;33181;49.246;7.372;2023-01-28T09:49:42;99795.25;;;2.00;82.85
47430;BME280;33181;49.246;7.372;2023-01-28T09:52:16;99799.66;;;1.97;83.67
47430;BME280;33181;49.246;7.372;2023-01-28T10:00:19;99795.88;;;2.08;82.65
47430;BME280;33181;49.246;7.372;2023-01-28T10:06:16;99807.63;;;1.89;84.15
47430;BME280;33181;49.246;7.372;2023-01-28T10:09:30;99802.59;;;1.84;83.97
47430;BME280;33181;49.246;7.372;2023-01-28T10:12:44;99816.88;;;1.99;83.51
47430;BME280;33181;49.246;7.372;2023-01-28T10:15:46;99806.19;;;2.10;84.43
47430;BME280;33181;49.246;7.372;2023-01-28T10:18:14;99816.06;;;1.97;82.88
47430;BME280;33181;49.246;7.372;2023-01-28T10:21:26;99815.38;;;1.91;83.43
47430;BME280;33181;49.246;7.372;2023-01-28T10:24:17;99808.16;;;2.02;84.07
47430;BME280;33181;49.246;7.372;2023-01-28T10:26:47;99814.47;;;2.23;83.34
47430;BME280;33181;49.246;7.372;2023-01-28T10:29:22;99816.81;;;2.01;82.50
47430;BME280;33181;49.246;7.372;2023-01-28T10:32:44;99819.84;;;1.85;83.66
47430;BME280;33181;49.246;7.372;2023-01-28T10:34:43;99817.63;;;2.03;83.87
47430;BME280;33181;49.246;7.372;2023-01-28T10:37:12;99816.38;;;2.16;83.41
47430;BME280;33181;49.246;7.372;2023-01-28T10:39:39;99812.59;;;2.28;82.19
47430;BME280;33181;49.246;7.372;2023-01-28T10:45:39;99819.78;;;2.18;82.46
47430;BME280;33181;49.246;7.372;2023-01-28T10:48:25;99830.41;;;2.09;82.20
47430;BME280;33181;49.246;7.372;2023-01-28T10:50:55;99813.75;;;2.18;82.19
47430;BME280;33181;49.246;7.372;2023-01-28T10:53:41;99826.91;;;2.10;82.08
47430;BME280;33181;49.246;7.372;2023-01-28T10:56:33;99824.09;;;1.88;82.89
47430;BME280;33181;49.246;7.372;2023-01-28T10:59:04;99823.31;;;1.86;83.72
47430;BME280;33181;49.246;7.372;2023-01-28T11:04:32;99828.34;;;2.20;81.87
47430;BME280;33181;49.246;7.372;2023-01-28T11:07:18;99818.78;;;1.93;82.73
47430;BME280;33181;49.246;7.372;2023-01-28T11:09:48;99827.94;;;2.04;82.87
47430;BME280;33181;49.246;7.372;2023-01-28T11:12:29;99826.41;;;2.27;82.33
47430;BME280;33181;49.246;7.372;2023-01-28T11:15:04;99825.84;;;2.17;82.04
47430;BME280;33181;49.246;7.372;2023-01-28T11:17:35;99832.94;;;2.11;82.11
47430;BME280;33181;49.246;7.372;2023-01-28T11:20:20;99824.25;;;2.13;82.28
47430;BME280;33181;49.246;7.372;2023-01-28T11:22:47;99821.03;;;2.05;82.18
47430;BME280;33181;49.246;7.372;2023-01-28T11:27:50;99815.75;;;2.38;81.92
47430;BME280;33181;49.246;7.372;2023-01-28T11:30:32;99822.06;;;2.29;81.31
47430;BME280;33181;49.246;7.372;2023-01-28T11:33:17;99819.44;;;2.30;82.04
47430;BME280;33181;49.246;7.372;2023-01-28T11:36:06;99821.06;;;2.33;82.22
47430;BME280;33181;49.246;7.372;2023-01-28T11:38:32;99824.44;;;2.37;81.97
47430;BME280;33181;49.246;7.372;2023-01-28T11:40:58;99825.75;;;2.50;81.77
47430;BME280;33181;49.246;7.372;2023-01-28T11:43:32;99818.53;;;2.60;80.42
47430;BME280;33181;49.246;7.372;2023-01-28T11:46:21;99832.47;;;2.27;80.43
47430;BME280;33181;49.246;7.372;2023-01-28T12:00:34;99809.47;;;2.73;81.11
47430;BME280;33181;49.246;7.372;2023-01-28T12:06:49;99805.00;;;2.78;78.66
47430;BME280;33181;49.246;7.372;2023-01-28T12:15:30;99801.00;;;2.40;79.96
47430;BME280;33181;49.246;7.372;2023-01-28T12:21:40;99790.09;;;2.28;80.46
47430;BME280;33181;49.246;7.372;2023-01-28T12:24:21;99787.97;;;2.43;80.43
47430;BME280;33181;49.246;7.372;2023-01-28T12:27:24;99792.09;;;2.48;79.06
47430;BME280;33181;49.246;7.372;2023-01-28T12:39:00;99792.53;;;2.61;79.42
47430;BME280;33181;49.246;7.372;2023-01-28T12:41:34;99791.31;;;2.45;79.17
47430;BME280;33181;49.246;7.372;2023-01-28T12:44:27;99782.78;;;2.43;79.45
47430;BME280;33181;49.246;7.372;2023-01-28T12:47:04;99782.47;;;2.52;79.90
47430;BME280;33181;49.246;7.372;2023-01-28T12:49:52;99789.66;;;2.70;79.38
47430;BME280;33181;49.246;7.372;2023-01-28T12:52:34;99778.47;;;2.42;79.08
47430;BME280;33181;49.246;7.372;2023-01-28T12:55:39;99776.88;;;2.38;79.86
47430;BME280;33181;49.246;7.372;2023-01-28T12:58:18;99774.66;;;2.53;79.31
47430;BME280;33181;49.246;7.372;2023-01-28T13:00:50;99780.75;;;2.52;79.66
47430;BME280;33181;49.246;7.372;2023-01-28T13:03:39;99773.66;;;2.58;79.24
47430;BME280;33181;49.246;7.372;2023-01-28T13:06:29;99775.13;;;2.65;79.10
47430;BME280;33181;49.246;7.372;2023-01-28T13:09:01;99784.38;;;2.47;80.33
47430;BME280;33181;49.246;7.372;2023-01-28T13:11:34;99776.41;;;2.53;79.31
47430;BME280;33181;49.246;7.372;2023-01-28T13:14:02;99786.31;;;2.40;79.20
47430;BME280;33181;49.246;7.372;2023-01-28T13:16:28;99783.00;;;2.35;79.64
47430;BME280;33181;49.246;7.372;2023-01-28T13:19:20;99786.41;;;2.37;79.59
47430;BME280;33181;49.246;7.372;2023-01-28T13:21:47;99789.41;;;2.51;78.76
47430;BME280;33181;49.246;7.372;2023-01-28T13:26:48;99796.06;;;2.60;77.77
47430;BME280;33181;49.246;7.372;2023-01-28T13:31:52;99807.44;;;2.54;77.23
47430;BME280;33181;49.246;7.372;2023-01-28T13:34:36;99807.69;;;2.17;77.71
47430;BME280;33181;49.246;7.372;2023-01-28T13:40:24;99813.97;;;2.40;77.47
47430;BME280;33181;49.246;7.372;2023-01-28T13:43:05;99814.28;;;2.29;76.85
47430;BME280;33181;49.246;7.372;2023-01-28T13:45:59;99810.88;;;2.27;77.23
47430;BME280;33181;49.246;7.372;2023-01-28T13:48:49;99823.81;;;2.28;77.65
47430;BME280;33181;49.246;7.372;2023-01-28T13:51:33;99830.66;;;2.31;77.01
47430;BME280;33181;49.246;7.372;2023-01-28T13:54:06;99827.16;;;2.32;77.37
47430;BME280;33181;49.246;7.372;2023-01-28T14:02:52;99847.53;;;2.44;75.07
47430;BME280;33181;49.246;7.372;2023-01-28T14:14:10;99852.06;;;2.38;75.58
47430;BME280;33181;49.246;7.372;2023-01-28T14:19:33;99854.00;;;2.29;75.81
47430;BME280;33181;49.246;7.372;2023-01-28T14:22:09;99866.88;;;2.32;75.72
47430;BME280;33181;49.246;7.372;2023-01-28T14:24:39;99874.63;;;2.34;75.05
47430;BME280;33181;49.246;7.372;2023-01-28T14:27:26;99865.00;;;2.38;75.26
47430;BME280;33181;49.246;7.372;2023-01-28T14:32:50;99872.75;;;2.08;75.81
47430;BME280;33181;49.246;7.372;2023-01-28T14:35:34;99875.47;;;2.05;75.78
47430;BME280;33181;49.246;7.372;2023-01-28T14:38:11;99884.25;;;1.98;75.86
47430;BME280;33181;49.246;7.372;2023-01-28T14:40:39;99882.75;;;1.91;76.42
47430;BME280;33181;49.246;7.372;2023-01-28T14:43:19;99888.00;;;1.88;76.10
47430;BME280;33181;49.246;7.372;2023-01-28T14:52:12;99881.81;;;1.93;76.26
47430;BME280;33181;49.246;7.372;2023-01-28T14:57:40;99879.88;;;1.69;75.84
47430;BME280;33181;49.246;7.372;2023-01-28T15:00:34;99884.13;;;1.71;75.51
47430;BME280;33181;49.246;7.372;2023-01-28T15:03:16;99877.34;;;1.67;75.58
47430;BME280;33181;49.246;7.372;2023-01-28T15:05:43;99882.84;;;1.53;75.63
47430;BME280;33181;49.246;7.372;2023-01-28T15:08:19;99882.53;;;1.66;76.07
47430;BME280;33181;49.246;7.372;2023-01-28T15:10:46;99883.03;;;1.80;75.02
47430;BME280;33181;49.246;7.372;2023-01-28T15:13:27;99882.75;;;1.91;74.82
47430;BME280;33181;49.246;7.372;2023-01-28T15:15:54;99882.09;;;1.82;75.00
47430;BME280;33181;49.246;7.372;2023-01-28T15:18:33;99887.50;;;1.73;75.13
47430;BME280;33181;49.246;7.372;2023-01-28T15:21:01;99887.88;;;1.59;75.51
47430;BME280;33181;49.246;7.372;2023-01-28T15:23:33;99894.28;;;1.45;75.83
47430;BME280;33181;49.246;7.372;2023-01-28T15:26:09;99877.66;;;1.55;76.30
47430;BME280;33181;49.246;7.372;2023-01-28T15:28:38;99882.22;;;1.45;76.20
47430;BME280;33181;49.246;7.372;2023-01-28T15:31:05;99878.34;;;1.27;77.04
47430;BME280;33181;49.246;7.372;2023-01-28T15:33:31;99879.84;;;1.36;77.04
47430;BME280;33181;49.246;7.372;2023-01-28T15:35:57;99882.66;;;1.27;76.53